Time;durP1;ratioP1;P1;durP2;ratioP2;P2;SDS_P1;SDS_P2;PMS_P1;PMS_P2;Temp;Humidity;BMP_temperature;BMP_pressure;BME280_temperature;BME280_humidity;BME280_pressure;Samples;Min_cycle;Max_cycle;Signal;HPM_P1;HPM_P2
2023/09/20 00:01:03;;;;;;;0.30;0.30;;;;;;;15.54;100.00;100033.06;4978082;28;20169;-89
2023/09/20 00:03:30;;;;;;;0.15;0.13;;;;;;;15.60;100.00;100042.38;4972168;28;20031;-89
2023/09/20 00:05:56;;;;;;;0.00;0.00;;;;;;;15.31;100.00;99997.41;4947454;28;20121;-89
2023/09/20 00:08:21;;;;;;;1.10;0.35;;;;;;;15.57;100.00;100032.09;4950153;28;20075;-89
2023/09/20 00:10:47;;;;;;;0.30;0.30;;;;;;;15.55;100.00;100034.63;4965974;28;20038;-89
2023/09/20 00:13:13;;;;;;;1.40;0.85;;;;;;;15.45;100.00;100016.28;4948884;28;20037;-89
2023/09/20 00:15:42;;;;;;;0.15;0.15;;;;;;;15.53;100.00;100025.91;4963684;28;20184;-89
2023/09/20 00:18:09;;;;;;;0.08;0.08;;;;;;;15.37;100.00;100001.09;4953146;28;20031;-90
2023/09/20 00:20:35;;;;;;;0.30;0.13;;;;;;;15.49;100.00;100007.75;4979832;28;20841;-89
2023/09/20 00:23:02;;;;;;;0.00;0.00;;;;;;;15.33;100.00;99995.66;4959819;28;20039;-89
2023/09/20 00:25:28;;;;;;;0.28;0.25;;;;;;;15.35;100.00;100007.16;4949169;28;20046;-89
2023/09/20 00:27:54;;;;;;;0.00;0.00;;;;;;;15.45;100.00;100024.66;4961220;28;20496;-90
2023/09/20 00:30:19;;;;;;;0.15;0.15;;;;;;;15.42;100.00;100014.44;4963913;28;20039;-89
2023/09/20 00:32:45;;;;;;;0.17;0.17;;;;;;;15.53;100.00;100025.91;4986207;28;20043;-89
2023/09/20 00:35:13;;;;;;;0.10;0.10;;;;;;;15.48;100.00;100032.13;4972815;28;20054;-89
2023/09/20 00:37:41;;;;;;;0.50;0.50;;;;;;;15.26;100.00;100000.81;4959106;28;20047;-89
2023/09/20 00:40:18;;;;;;;0.03;0.03;;;;;;;15.39;100.00;100026.56;4965727;28;20042;-89
2023/09/20 00:42:49;;;;;;;0.30;0.20;;;;;;;15.41;100.00;100030.44;4971541;28;20523;-90
2023/09/20 00:45:17;;;;;;;0.00;0.00;;;;;;;15.38;100.00;100028.56;4949481;28;20129;-89
2023/09/20 00:47:44;;;;;;;0.08;0.08;;;;;;;15.38;100.00;100036.19;4972464;28;20074;-90
2023/09/20 00:50:13;;;;;;;0.10;0.10;;;;;;;15.34;100.00;100035.56;4963495;28;20129;-90
2023/09/20 00:52:41;;;;;;;0.00;0.00;;;;;;;15.10;100.00;100003.97;4976876;28;20704;-89
2023/09/20 00:55:15;;;;;;;1.45;0.20;;;;;;;15.18;100.00;100013.56;4945753;28;20038;-90
2023/09/20 00:57:45;;;;;;;2.45;1.13;;;;;;;15.03;100.00;99998.72;4981108;28;20034;-90
2023/09/20 01:00:20;;;;;;;0.10;0.10;;;;;;;15.08;100.00;100010.03;4985494;28;20042;-89
2023/09/20 01:02:49;;;;;;;0.00;0.00;;;;;;;14.99;100.00;99995.28;4972902;28;20074;-89
2023/09/20 01:05:15;;;;;;;0.20;0.20;;;;;;;15.19;100.00;100029.09;4980217;28;20436;-89
2023/09/20 01:07:42;;;;;;;0.65;0.52;;;;;;;15.06;100.00;100001.34;4957381;28;20524;-89
2023/09/20 01:10:09;;;;;;;0.10;0.10;;;;;;;15.16;100.00;100019.63;4959906;28;20026;-89
2023/09/20 01:12:37;;;;;;;0.08;0.08;;;;;;;15.08;100.00;100009.25;4966710;28;20093;-89
2023/09/20 01:15:03;;;;;;;0.00;0.00;;;;;;;15.17;100.00;100023.19;4984491;28;20066;-89
2023/09/20 01:17:29;;;;;;;0.00;0.00;;;;;;;15.01;100.00;100001.19;4956154;28;20377;-90
2023/09/20 01:19:54;;;;;;;0.32;0.32;;;;;;;14.89;100.00;99986.16;4985930;28;20049;-89
2023/09/20 01:22:20;;;;;;;0.10;0.10;;;;;;;15.02;100.00;100019.50;4934087;28;20512;-89
2023/09/20 01:24:46;;;;;;;0.05;0.05;;;;;;;14.86;100.00;99990.66;4961762;28;20065;-89
2023/09/20 01:27:13;;;;;;;0.13;0.05;;;;;;;14.88;100.00;99999.34;4980899;28;20035;-89
2023/09/20 01:29:38;;;;;;;0.00;0.00;;;;;;;14.93;100.00;100012.69;4962996;28;20051;-89
2023/09/20 01:32:04;;;;;;;0.00;0.00;;;;;;;14.99;100.00;100014.84;4962845;28;20039;-89
2023/09/20 01:34:31;;;;;;;0.00;0.00;;;;;;;15.01;100.00;100015.13;4948763;28;20039;-89
2023/09/20 01:36:58;;;;;;;0.22;0.22;;;;;;;15.01;100.00;100020.72;4961569;28;20078;-89
2023/09/20 01:39:24;;;;;;;0.00;0.00;;;;;;;15.05;100.00;100024.91;4966652;28;20416;-89
2023/09/20 01:41:50;;;;;;;0.00;0.00;;;;;;;15.02;100.00;100008.31;4955152;28;20054;-89
2023/09/20 01:44:17;;;;;;;0.75;0.73;;;;;;;14.83;100.00;99988.81;4984454;28;20054;-89
2023/09/20 01:46:43;;;;;;;0.65;0.43;;;;;;;15.02;100.00;100013.91;4954103;28;20042;-89
2023/09/20 01:49:09;;;;;;;0.00;0.00;;;;;;;14.74;100.00;99974.06;4951355;28;20046;-89
2023/09/20 01:51:34;;;;;;;0.20;0.20;;;;;;;14.91;100.00;100008.81;4953574;28;20440;-89
2023/09/20 01:54:00;;;;;;;0.17;0.17;;;;;;;14.92;100.00;100011.13;4970764;28;20051;-88
2023/09/20 01:56:26;;;;;;;0.05;0.05;;;;;;;14.80;100.00;99991.75;4973720;28;20046;-89
2023/09/20 01:58:51;;;;;;;0.00;0.00;;;;;;;14.77;100.00;99995.47;4941658;28;20034;-89
2023/09/20 02:01:18;;;;;;;0.30;0.30;;;;;;;14.77;100.00;100001.84;4963583;28;20053;-89
2023/09/20 02:03:44;;;;;;;0.52;0.52;;;;;;;14.81;100.00;100007.25;4955307;28;20043;-90
2023/09/20 02:06:11;;;;;;;0.73;0.50;;;;;;;14.88;100.00;100021.66;4970773;28;20533;-89
2023/09/20 02:08:37;;;;;;;0.10;0.10;;;;;;;14.61;100.00;99985.41;4974284;28;20062;-89
2023/09/20 02:11:03;;;;;;;0.00;0.00;;;;;;;14.64;100.00;99989.28;4958548;28;20057;-89
2023/09/20 02:13:28;;;;;;;0.00;0.00;;;;;;;14.60;100.00;99986.63;4981439;28;20061;-89
2023/09/20 02:15:55;;;;;;;0.35;0.35;;;;;;;14.49;100.00;99972.38;4954934;28;20026;-89
2023/09/20 02:18:22;;;;;;;0.10;0.10;;;;;;;14.58;100.00;99983.53;4953077;28;20054;-89
2023/09/20 02:20:47;;;;;;;0.00;0.00;;;;;;;14.54;100.00;99974.56;4955218;28;20090;-89
2023/09/20 02:23:15;;;;;;;0.00;0.00;;;;;;;14.53;100.00;99977.78;4964974;28;20408;-89
2023/09/20 02:25:42;;;;;;;9.13;0.55;;;;;;;14.66;100.00;99992.38;4965905;28;20038;-89
2023/09/20 02:28:08;;;;;;;0.00;0.00;;;;;;;14.56;100.00;99985.25;4980330;28;20366;-89
2023/09/20 02:30:36;;;;;;;0.73;0.50;;;;;;;14.57;100.00;99998.75;4967881;28;20051;-89
2023/09/20 02:33:05;;;;;;;0.10;0.10;;;;;;;14.73;100.00;100023.56;4940791;28;20043;-88
2023/09/20 02:35:32;;;;;;;0.22;0.22;;;;;;;14.46;100.00;99985.25;4947587;28;20054;-89
2023/09/20 02:37:59;;;;;;;0.47;0.47;;;;;;;14.52;100.00;99988.19;4988066;28;20770;-88
2023/09/20 02:40:26;;;;;;;0.00;0.00;;;;;;;14.48;100.00;99982.75;4953974;28;20047;-88
2023/09/20 02:42:54;;;;;;;0.10;0.10;;;;;;;14.45;100.00;99982.91;4948982;28;20051;-87
2023/09/20 02:45:23;;;;;;;0.10;0.10;;;;;;;14.54;100.00;99996.09;4954866;28;20073;-89
2023/09/20 02:47:50;;;;;;;0.25;0.25;;;;;;;14.41;100.00;99990.66;4964541;28;20591;-89
2023/09/20 02:50:22;;;;;;;0.00;0.00;;;;;;;14.56;100.00;100002.75;4967633;28;20031;-89
2023/09/20 02:52:48;;;;;;;0.00;0.00;;;;;;;14.70;100.00;100016.13;4965255;28;20066;-89
2023/09/20 02:55:17;;;;;;;0.20;0.20;;;;;;;14.83;100.00;100027.13;4965105;28;20504;-89
2023/09/20 02:57:44;;;;;;;0.00;0.00;;;;;;;14.83;100.00;100036.28;4953979;28;20050;-89
2023/09/20 03:00:15;;;;;;;0.05;0.05;;;;;;;14.70;100.00;100010.53;4960692;28;20136;-89
2023/09/20 03:02:46;;;;;;;0.00;0.00;;;;;;;14.79;100.00;100026.50;4966591;28;20053;-89
2023/09/20 03:05:15;;;;;;;0.00;0.00;;;;;;;14.76;100.00;100019.81;4964364;28;20170;-89
2023/09/20 03:07:48;;;;;;;0.00;0.00;;;;;;;14.89;100.00;100039.22;4968746;28;20027;-89
2023/09/20 03:10:15;;;;;;;0.52;0.52;;;;;;;14.57;100.00;99990.38;4959072;28;20042;-89
2023/09/20 03:12:43;;;;;;;0.50;0.50;;;;;;;14.86;100.00;100046.50;4941244;28;20046;-89
2023/09/20 03:15:17;;;;;;;0.20;0.20;;;;;;;14.55;100.00;99992.84;4954192;28;20050;-89
2023/09/20 03:17:44;;;;;;;0.38;0.30;;;;;;;14.58;100.00;100008.66;4961617;28;20035;-89
2023/09/20 03:20:11;;;;;;;0.82;0.45;;;;;;;14.85;100.00;100042.16;4967566;28;20180;-89
2023/09/20 03:22:38;;;;;;;0.10;0.10;;;;;;;14.63;100.00;100010.06;4944905;28;20035;-89
2023/09/20 03:25:05;;;;;;;0.15;0.15;;;;;;;14.80;100.00;100039.22;4966879;28;20043;-89
2023/09/20 03:27:31;;;;;;;0.55;0.55;;;;;;;14.69;100.00;100024.94;4965905;28;20404;-89
2023/09/20 03:29:57;;;;;;;0.13;0.13;;;;;;;14.76;100.00;100039.38;4956232;28;20039;-89
2023/09/20 03:32:23;;;;;;;0.17;0.15;;;;;;;14.76;100.00;100030.25;4959982;28;20507;-89
2023/09/20 03:34:50;;;;;;;0.00;0.00;;;;;;;14.78;100.00;100030.53;4959922;28;20046;-89
2023/09/20 03:37:18;;;;;;;0.20;0.20;;;;;;;14.55;100.00;99992.84;4976863;28;20046;-89
2023/09/20 03:39:46;;;;;;;0.10;0.10;;;;;;;14.58;100.00;100003.09;4966115;28;20377;-89
2023/09/20 03:42:11;;;;;;;0.40;0.38;;;;;;;14.73;100.00;100020.75;4958583;28;20035;-89
2023/09/20 03:44:41;;;;;;;0.30;0.30;;;;;;;14.67;100.00;100000.31;4957784;28;20186;-88
2023/09/20 03:47:08;;;;;;;0.05;0.05;;;;;;;14.68;100.00;100010.19;4956308;28;20059;-89
2023/09/20 03:49:34;;;;;;;0.47;0.47;;;;;;;14.90;100.00;100035.97;4961118;28;20039;-89
2023/09/20 03:52:00;;;;;;;0.08;0.08;;;;;;;14.92;100.00;100036.25;4968264;28;20057;-89
2023/09/20 03:54:28;;;;;;;0.10;0.10;;;;;;;14.94;100.00;100031.00;4943692;28;20138;-88
2023/09/20 03:56:55;;;;;;;0.00;0.00;;;;;;;14.89;100.00;100019.66;4963263;28;20038;-89
2023/09/20 03:59:21;;;;;;;0.40;0.40;;;;;;;14.72;100.00;99991.28;4954223;28;20042;-89
2023/09/20 04:01:46;;;;;;;0.30;0.30;;;;;;;14.78;100.00;100008.97;4963074;28;20513;-89
2023/09/20 04:04:12;;;;;;;0.43;0.30;;;;;;;14.85;100.00;100019.03;4948047;28;20038;-88
2023/09/20 04:06:38;;;;;;;0.00;0.00;;;;;;;14.72;100.00;100001.69;4957629;28;20086;-88
2023/09/20 04:09:22;;;;;;;0.13;0.08;;;;;;;14.90;100.00;100029.59;4975307;28;20051;-89
2023/09/20 04:11:47;;;;;;;0.28;0.28;;;;;;;14.70;100.00;99998.59;4976293;28;20104;-89
2023/09/20 04:14:13;;;;;;;0.22;0.22;;;;;;;14.55;100.00;99986.50;4957398;28;20042;-89
2023/09/20 04:16:40;;;;;;;0.25;0.25;;;;;;;14.73;100.00;100015.19;4952712;28;20512;-89
2023/09/20 04:19:06;;;;;;;0.10;0.10;;;;;;;14.76;100.00;100019.81;4971570;28;20039;-89
2023/09/20 04:21:37;;;;;;;0.08;0.08;;;;;;;14.61;100.00;100006.94;4958920;28;20108;-89
2023/09/20 04:24:05;;;;;;;0.00;0.00;;;;;;;14.56;100.00;99986.00;4969949;28;20527;-89
2023/09/20 04:26:30;;;;;;;0.10;0.10;;;;;;;14.82;100.00;100029.13;4950747;28;20069;-89
2023/09/20 04:28:56;;;;;;;0.10;0.10;;;;;;;14.66;100.00;100009.91;4955180;28;20481;-89
2023/09/20 04:31:22;;;;;;;0.95;0.82;;;;;;;14.78;100.00;100022.94;4979158;28;20059;-88
2023/09/20 04:33:48;;;;;;;0.10;0.10;;;;;;;14.60;100.00;99999.84;4955518;28;20105;-89
2023/09/20 04:36:15;;;;;;;0.15;0.15;;;;;;;14.45;100.00;99971.75;4960053;28;20237;-88
2023/09/20 04:38:41;;;;;;;1.25;0.43;;;;;;;14.78;100.00;100033.31;4957985;28;20051;-88
2023/09/20 04:41:11;;;;;;;0.20;0.20;;;;;;;14.65;100.00;100029.91;4953985;28;20050;-87
2023/09/20 04:43:39;;;;;;;0.85;0.60;;;;;;;14.68;100.00;100029.00;4948517;28;20046;-93
2023/09/20 04:46:06;;;;;;;0.50;0.40;;;;;;;14.59;100.00;100018.59;4976312;28;20050;-93
2023/09/20 04:48:41;;;;;;;0.32;0.32;;;;;;;14.62;100.00;100026.03;4945977;28;20043;-93
2023/09/20 04:51:11;;;;;;;0.38;0.38;;;;;;;14.64;100.00;100026.34;4931324;28;20070;-93
2023/09/20 04:53:40;;;;;;;0.75;0.50;;;;;;;14.34;100.00;99977.78;4928067;28;20465;-93
2023/09/20 04:56:07;;;;;;;1.35;0.93;;;;;;;14.57;100.00;100018.28;4966218;28;20097;-92
2023/09/20 04:58:33;;;;;;;0.10;0.10;;;;;;;14.54;100.00;100022.00;4938696;28;20043;-93
2023/09/20 05:00:58;;;;;;;0.40;0.30;;;;;;;14.40;100.00;99991.91;4956284;28;20117;-93
2023/09/20 05:03:24;;;;;;;0.43;0.43;;;;;;;14.61;100.00;100026.50;4977806;28;20042;-93
2023/09/20 05:05:51;;;;;;;1.17;1.10;;;;;;;14.61;100.00;100013.31;4952501;28;20042;-94
2023/09/20 05:08:18;;;;;;;0.38;0.38;;;;;;;14.84;100.00;100048.97;4969681;28;20090;-93
2023/09/20 05:10:45;;;;;;;4.10;0.88;;;;;;;14.79;100.00;100023.72;4936706;28;20043;-91
2023/09/20 05:13:11;;;;;;;0.47;0.47;;;;;;;14.86;100.00;100035.34;4945096;28;20061;-94
2023/09/20 05:15:37;;;;;;;1.23;0.85;;;;;;;15.01;100.00;100052.22;4934234;28;20385;-94
2023/09/20 05:18:07;;;;;;;0.10;0.10;;;;;;;15.01;100.00;100040.28;4951606;28;20058;-92
2023/09/20 05:20:35;;;;;;;0.30;0.30;;;;;;;15.04;100.00;100031.00;4947042;28;20042;-91
2023/09/20 06:48:41;;;;;;;0.40;0.40;;;;;;;19.92;100.00;100077.22;866337;23;20322;31
2023/09/20 06:51:09;;;;;;;0.50;0.50;;;;;;;20.11;100.00;100078.38;4881832;29;20087;-95
2023/09/20 06:53:35;;;;;;;0.47;0.47;;;;;;;20.28;100.00;100070.81;4875836;29;20044;-96
2023/09/20 06:56:01;;;;;;;0.50;0.50;;;;;;;20.38;100.00;100083.44;4899413;29;20035;-96
2023/09/20 06:58:26;;;;;;;1.85;0.70;;;;;;;20.47;100.00;100085.28;4884829;29;20047;-96
2023/09/20 07:00:52;;;;;;;0.50;0.50;;;;;;;20.73;100.00;100085.16;4883839;29;20131;-95
2023/09/20 07:03:19;;;;;;;0.45;0.45;;;;;;;20.84;100.00;100090.84;4891910;29;20062;-95
2023/09/20 07:05:45;;;;;;;0.47;0.47;;;;;;;20.77;100.00;100068.78;4906986;29;20032;-96
2023/09/20 07:08:10;;;;;;;0.20;0.20;;;;;;;20.99;100.00;100102.69;4885278;29;20056;-96
2023/09/20 07:10:41;;;;;;;0.10;0.10;;;;;;;21.01;100.00;100097.31;4909164;29;20162;-96
2023/09/20 07:13:09;;;;;;;0.47;0.47;;;;;;;20.91;100.00;100067.78;4897324;29;20047;-96
2023/09/20 07:15:35;;;;;;;0.52;0.52;;;;;;;21.21;100.00;100102.78;4918452;29;20044;-96
2023/09/20 07:18:11;;;;;;;0.93;0.63;;;;;;;21.10;100.00;100085.81;4902101;29;20047;-95
2023/09/20 07:20:38;;;;;;;2.33;1.00;;;;;;;21.29;100.00;100106.66;4917678;29;20047;-96
2023/09/20 07:23:08;;;;;;;1.55;0.73;;;;;;;21.24;100.00;100084.84;4902878;29;20033;-96
2023/09/20 07:25:36;;;;;;;0.47;0.38;;;;;;;21.57;100.00;100105.94;4913783;29;20128;-96
2023/09/20 07:28:04;;;;;;;0.20;0.20;;;;;;;21.70;100.00;100103.38;4915976;29;20052;-95
2023/09/20 07:30:31;;;;;;;0.98;0.90;;;;;;;21.65;100.00;100106.97;4911180;29;20051;-96
2023/09/20 07:32:59;;;;;;;0.47;0.47;;;;;;;21.73;100.00;100105.94;4879988;29;20107;-96
2023/09/20 07:35:36;;;;;;;0.13;0.13;;;;;;;21.81;100.00;100080.78;4914119;29;20058;-96
2023/09/20 07:38:04;;;;;;;0.28;0.28;;;;;;;21.97;100.00;100088.53;4894967;29;20064;-95
2023/09/20 07:40:31;;;;;;;0.55;0.52;;;;;;;21.69;100.00;100087.72;4896384;29;20056;-95
2023/09/20 07:43:10;;;;;;;0.30;0.30;;;;;;;21.48;100.00;100073.06;4908190;29;20054;-96
2023/09/20 07:45:41;;;;;;;0.85;0.63;;;;;;;21.81;100.00;100081.56;4908678;29;20052;-95
2023/09/20 07:48:16;;;;;;;0.45;0.45;;;;;;;21.93;100.00;100082.34;4902318;29;20461;-95
2023/09/20 07:50:49;;;;;;;1.25;0.65;;;;;;;21.93;100.00;100085.19;4928279;29;20055;-95
2023/09/20 07:53:20;;;;;;;3.55;0.60;;;;;;;22.10;100.00;100088.78;4927279;29;20132;-96
2023/09/20 07:56:07;;;;;;;2.83;1.70;;;;;;;22.35;100.00;100084.09;4929152;29;20044;-95
2023/09/20 07:58:36;;;;;;;0.20;0.20;;;;;;;22.35;100.00;100094.63;4922275;29;20051;-96
2023/09/20 08:01:10;;;;;;;0.10;0.10;;;;;;;22.26;100.00;100087.97;4917464;29;20063;-96
2023/09/20 08:03:36;;;;;;;0.50;0.50;;;;;;;21.96;100.00;100081.31;4940168;29;20083;-95
2023/09/20 08:06:08;;;;;;;0.20;0.20;;;;;;;22.13;100.00;100079.25;4917174;29;20052;-95
2023/09/20 08:08:37;;;;;;;0.22;0.22;;;;;;;22.53;100.00;100091.25;4932403;29;20079;-96
2023/09/20 08:11:03;;;;;;;0.00;0.00;;;;;;;22.71;100.00;100059.59;4921212;29;20504;-95
2023/09/20 08:13:29;;;;;;;0.35;0.20;;;;;;;23.33;100.00;100099.66;4927599;29;20099;-95
2023/09/20 08:15:55;;;;;;;0.75;0.30;;;;;;;23.53;100.00;100104.97;4897962;29;20500;-96
2023/09/20 08:21:04;;;;;;;0.20;0.20;;;;;;;23.74;100.00;100103.25;4928291;29;20044;-95
2023/09/20 09:01:56;;;;;;;0.30;0.30;;;;;;;24.69;100.00;100060.59;4910609;29;20046;-95
2023/09/20 09:04:22;;;;;;;0.30;0.30;;;;;;;25.05;100.00;100070.47;4931145;29;20036;-95
2023/09/20 09:06:48;;;;;;;0.95;0.95;;;;;;;25.22;100.00;100072.31;4916130;29;20113;-96
2023/09/20 09:09:13;;;;;;;0.17;0.17;;;;;;;25.02;100.00;100065.09;4922512;29;20079;-95
2023/09/20 09:11:40;;;;;;;0.10;0.10;;;;;;;25.45;100.00;100074.28;4931704;29;20039;-95
2023/09/20 09:14:05;;;;;;;0.20;0.20;;;;;;;25.74;100.00;100071.78;4896266;29;20571;-95
2023/09/20 09:16:32;;;;;;;0.30;0.30;;;;;;;25.91;100.00;100070.22;4907493;29;20134;-95
2023/09/20 09:18:58;;;;;;;0.10;0.10;;;;;;;26.14;98.59;100055.59;4931290;29;20801;-96
2023/09/20 09:21:26;;;;;;;0.52;0.52;;;;;;;26.11;91.81;100059.53;4937507;29;20048;-94
2023/09/20 09:23:52;;;;;;;0.43;0.43;;;;;;;26.36;87.67;100060.91;4914351;29;20051;-96
2023/09/20 09:26:17;;;;;;;0.32;0.32;;;;;;;26.36;89.08;100060.91;4904796;29;20040;-95
2023/09/20 09:28:47;;;;;;;0.20;0.20;;;;;;;25.95;90.86;100062.13;4943776;29;20087;-96
2023/09/20 09:31:13;;;;;;;0.55;0.55;;;;;;;25.98;86.41;100058.19;4908496;29;20103;-96
2023/09/20 09:33:39;;;;;;;0.20;0.20;;;;;;;26.07;93.79;100053.41;4894675;29;20509;-95
2023/09/20 09:36:05;;;;;;;0.63;0.52;;;;;;;26.49;93.90;100058.03;4897140;29;20123;-95
2023/09/20 09:38:33;;;;;;;0.20;0.20;;;;;;;26.60;89.31;100052.16;4928553;29;20566;-95
2023/09/20 09:40:59;;;;;;;0.35;0.35;;;;;;;26.83;88.78;100044.66;4932184;29;20059;-95
2023/09/20 09:43:29;;;;;;;0.30;0.30;;;;;;;26.72;91.31;100044.91;4911676;29;20039;-96
2023/09/20 09:46:03;;;;;;;0.35;0.35;;;;;;;26.89;84.70;100041.75;4897698;29;20063;-96
2023/09/20 09:48:31;;;;;;;0.85;0.85;;;;;;;27.23;83.65;100042.50;4912900;29;20259;-96
2023/09/20 09:50:59;;;;;;;0.90;0.45;;;;;;;26.89;78.24;100045.34;4928019;29;20044;-96
2023/09/20 09:53:25;;;;;;;0.98;0.50;;;;;;;27.20;82.30;100051.41;4930171;29;20047;-95
2023/09/20 09:55:51;;;;;;;0.30;0.30;;;;;;;27.22;78.24;100046.66;4931837;29;20274;-96
2023/09/20 09:58:17;;;;;;;0.20;0.20;;;;;;;27.53;77.76;100050.66;4900308;29;20772;-95
2023/09/20 10:00:48;;;;;;;0.20;0.20;;;;;;;27.27;76.47;100042.16;4897723;29;20044;-96
2023/09/20 10:03:34;;;;;;;0.25;0.25;;;;;;;27.52;77.40;100049.09;4913075;29;20401;-96
2023/09/20 10:06:14;;;;;;;0.20;0.20;;;;;;;27.37;75.39;100034.69;4911016;29;20068;-96
2023/09/20 10:08:41;;;;;;;1.27;1.17;;;;;;;27.14;73.43;100016.56;4917059;29;20054;-96
2023/09/20 10:11:08;;;;;;;0.20;0.20;;;;;;;27.06;78.23;100015.72;4922740;29;20048;-96
2023/09/20 10:13:38;;;;;;;0.20;0.20;;;;;;;26.98;70.40;100015.66;4946145;29;20040;-96
2023/09/20 10:16:06;;;;;;;0.52;0.52;;;;;;;26.92;76.09;100019.94;4916505;29;20075;-96
2023/09/20 10:18:33;;;;;;;0.28;0.25;;;;;;;27.03;78.45;100020.47;4916217;29;20052;-96
2023/09/20 10:21:13;;;;;;;0.40;0.40;;;;;;;26.88;75.32;100014.59;4903175;29;20039;-96
2023/09/20 10:23:42;;;;;;;1.20;0.73;;;;;;;26.86;73.55;100020.06;4935073;29;20106;-96
2023/09/20 10:26:16;;;;;;;0.30;0.30;;;;;;;27.00;75.31;100023.66;4917382;29;20135;-96
2023/09/20 10:28:44;;;;;;;0.10;0.10;;;;;;;27.60;69.99;100023.53;4948320;29;20052;-96
2023/09/20 10:31:19;;;;;;;0.20;0.20;;;;;;;27.46;68.39;100019.94;4936705;29;20062;-96
2023/09/20 10:33:51;;;;;;;0.60;0.60;;;;;;;27.78;68.91;100023.31;4895850;29;20044;-96
2023/09/20 10:36:30;;;;;;;0.43;0.35;;;;;;;27.77;61.80;99999.00;4932357;29;20052;-96
2023/09/20 10:39:18;;;;;;;0.38;0.38;;;;;;;27.66;60.90;100004.97;4921189;29;20055;-96
2023/09/20 10:41:45;;;;;;;0.38;0.38;;;;;;;27.38;62.69;99999.94;4933879;29;20050;-96
2023/09/20 10:44:28;;;;;;;0.75;0.52;;;;;;;26.74;66.21;100002.44;4900201;29;20043;-96
2023/09/20 10:46:55;;;;;;;;;;;;;;;27.19;68.54;100005.06;4917757;29;20048;-96
2023/09/20 10:49:41;;;;;;;0.05;0.05;;;;;;;27.54;67.68;100006.56;4913300;29;19930;-96
2023/09/20 10:52:07;;;;;;;0.75;0.75;;;;;;;27.49;63.62;100001.03;4919032;29;20142;-96
2023/09/20 10:54:36;;;;;;;0.05;0.05;;;;;;;27.19;64.15;100001.44;4902346;29;20040;-95
2023/09/20 10:57:10;;;;;;;0.20;0.20;;;;;;;27.49;66.89;99996.09;4901168;29;20060;-96
2023/09/20 10:59:41;;;;;;;0.20;0.20;;;;;;;27.68;62.44;99976.69;4904546;29;20047;-96
2023/09/20 11:02:13;;;;;;;0.10;0.10;;;;;;;27.74;61.11;99999.34;4920657;29;20075;-96
2023/09/20 11:04:40;;;;;;;0.10;0.10;;;;;;;27.86;61.29;99999.81;4919706;29;20051;-96
2023/09/20 11:07:09;;;;;;;0.20;0.20;;;;;;;28.09;58.89;99995.06;4902496;29;20032;-95
2023/09/20 11:09:35;;;;;;;0.47;0.47;;;;;;;27.85;58.37;99992.59;4902196;29;20036;-96
2023/09/20 11:12:08;;;;;;;0.10;0.10;;;;;;;27.64;61.46;99984.81;4909844;29;20046;-96
2023/09/20 11:14:42;;;;;;;0.28;0.28;;;;;;;27.76;60.23;99986.06;4908933;29;20048;-95
2023/09/20 11:17:14;;;;;;;7.85;1.17;;;;;;;28.16;58.94;99985.78;4873426;29;20055;-96
2023/09/20 11:19:40;;;;;;;0.32;0.20;;;;;;;28.42;56.76;99979.88;4895079;29;21181;-96
2023/09/20 11:22:06;;;;;;;0.17;0.17;;;;;;;28.36;55.06;99984.19;4902644;29;20077;-96
2023/09/20 11:24:32;;;;;;;0.08;0.08;;;;;;;28.38;55.09;99982.31;4901934;29;20048;-95
2023/09/20 11:26:58;;;;;;;0.52;0.52;;;;;;;28.10;53.95;99968.09;4881731;29;20460;-96
2023/09/20 11:29:26;;;;;;;0.20;0.20;;;;;;;28.21;56.90;99979.19;4903091;29;20062;-96
2023/09/20 11:31:57;;;;;;;0.98;0.38;;;;;;;28.55;54.79;99973.28;4884559;29;20048;-96
2023/09/20 11:34:23;;;;;;;0.40;0.30;;;;;;;28.21;52.92;99979.19;4899343;29;20088;-96
2023/09/20 11:36:53;;;;;;;0.28;0.20;;;;;;;28.54;52.85;99966.81;4899017;29;20048;-96
2023/09/20 11:39:28;;;;;;;0.47;0.47;;;;;;;28.74;53.60;99968.06;4903053;29;20058;-96
2023/09/20 11:41:59;;;;;;;0.30;0.30;;;;;;;28.57;50.19;99974.22;4904014;29;20118;-96
2023/09/20 11:44:25;;;;;;;0.52;0.30;;;;;;;28.30;51.11;99964.41;4899299;29;20072;-95
2023/09/20 11:46:54;;;;;;;0.10;0.10;;;;;;;28.05;53.96;99958.34;4903022;29;20035;-96
2023/09/20 11:49:21;;;;;;;0.20;0.20;;;;;;;28.38;52.97;99968.06;4900259;29;20135;-96
2023/09/20 11:51:46;;;;;;;0.43;0.20;;;;;;;28.80;50.67;99959.28;4929561;29;20047;-95
2023/09/20 11:54:13;;;;;;;0.55;0.55;;;;;;;28.62;49.38;99952.56;4925819;29;20047;-96
2023/09/20 11:56:38;;;;;;;0.25;0.25;;;;;;;28.13;50.67;99949.84;4901489;29;20133;-96
2023/09/20 11:59:09;;;;;;;0.10;0.10;;;;;;;28.39;50.62;99943.16;4916091;29;20048;-95
2023/09/20 12:01:41;;;;;;;0.30;0.30;;;;;;;28.60;49.69;99935.22;4917801;29;20051;-96
2023/09/20 12:04:10;;;;;;;0.32;0.32;;;;;;;28.31;49.04;99940.25;4899663;29;20131;-95
2023/09/20 12:06:36;;;;;;;0.47;0.43;;;;;;;28.17;49.51;99933.91;4915657;29;20048;-96
2023/09/20 12:09:03;;;;;;;1.60;0.22;;;;;;;27.95;50.87;99922.31;4916299;29;20051;-96
2023/09/20 12:11:29;;;;;;;0.28;0.28;;;;;;;27.83;50.84;99931.19;4916801;29;20083;-96
2023/09/20 12:13:54;;;;;;;0.10;0.10;;;;;;;27.93;51.19;99933.53;4925286;29;20441;-96
2023/09/20 12:16:23;;;;;;;0.32;0.32;;;;;;;27.96;52.87;99918.16;4900610;29;20051;-96
2023/09/20 12:18:50;;;;;;;0.50;0.50;;;;;;;27.87;49.76;99927.22;4929720;29;20052;-96
2023/09/20 12:21:16;;;;;;;0.10;0.10;;;;;;;27.94;49.92;99921.59;4918754;29;20147;-95
2023/09/20 12:23:42;;;;;;;0.22;0.22;;;;;;;28.21;52.38;99905.03;4943373;29;20848;-96
2023/09/20 12:26:08;;;;;;;0.50;0.28;;;;;;;28.51;50.26;99910.84;4916842;29;20147;-95
2023/09/20 12:28:34;;;;;;;0.25;0.25;;;;;;;28.65;49.71;99886.56;4914097;29;20139;-96
2023/09/20 12:31:01;;;;;;;0.20;0.20;;;;;;;28.88;49.53;99902.97;4913426;29;20043;-96
2023/09/20 12:33:27;;;;;;;0.98;0.38;;;;;;;28.70;46.67;99902.78;4926097;29;20044;-96
2023/09/20 12:35:53;;;;;;;0.20;0.20;;;;;;;28.56;48.21;99897.75;4907734;29;20044;-95
2023/09/20 12:38:19;;;;;;;0.20;0.20;;;;;;;28.53;47.87;99885.38;4916124;29;20107;-95
2023/09/20 12:40:45;;;;;;;0.20;0.20;;;;;;;28.72;47.77;99882.97;4913899;29;20044;-96
2023/09/20 12:43:11;;;;;;;0.20;0.20;;;;;;;28.81;46.36;99884.53;4914611;29;20055;-95
2023/09/20 12:45:36;;;;;;;1.17;0.30;;;;;;;28.41;47.06;99864.22;4909313;29;20047;-94
2023/09/20 12:48:07;;;;;;;0.30;0.30;;;;;;;28.48;47.79;99874.88;4928098;29;20032;-95
2023/09/20 12:50:36;;;;;;;0.43;0.43;;;;;;;28.57;49.10;99862.19;4914659;29;20134;-95
2023/09/20 12:53:08;;;;;;;0.20;0.20;;;;;;;28.66;48.71;99870.97;4925249;29;20460;-96
2023/09/20 12:55:38;;;;;;;0.20;0.20;;;;;;;28.83;47.09;99867.59;4931370;29;20103;-96
2023/09/20 12:58:10;;;;;;;0.00;0.00;;;;;;;28.94;48.81;99855.81;4900204;29;20050;-96
2023/09/20 13:00:36;;;;;;;0.75;0.50;;;;;;;28.75;47.22;99852.56;4898611;29;20087;-95
2023/09/20 13:03:09;;;;;;;0.20;0.20;;;;;;;28.55;48.13;99853.44;4905469;29;20051;-96
2023/09/20 13:05:36;;;;;;;0.10;0.10;;;;;;;28.56;47.54;99852.84;4928578;29;20583;-96
2023/09/20 13:08:03;;;;;;;0.20;0.20;;;;;;;28.51;48.37;99859.50;4891352;29;20048;-96
2023/09/20 13:10:29;;;;;;;0.93;0.85;;;;;;;28.13;48.38;99842.25;4927755;28;20389;-95
2023/09/20 13:12:55;;;;;;;0.40;0.40;;;;;;;28.35;49.21;99843.66;4908684;29;20401;-96
2023/09/20 13:15:21;;;;;;;0.50;0.50;;;;;;;28.64;48.40;99845.06;4928425;29;20059;-96
2023/09/20 13:17:55;;;;;;;0.10;0.10;;;;;;;28.39;47.78;99824.06;4913961;29;20708;-96
2023/09/20 13:20:25;;;;;;;0.10;0.10;;;;;;;28.12;49.24;99834.25;4915781;29;20079;-96
2023/09/20 13:22:55;;;;;;;0.10;0.10;;;;;;;28.21;49.31;99836.59;4927524;29;20074;-96
2023/09/20 13:25:21;;;;;;;0.10;0.10;;;;;;;28.12;47.89;99812.22;4898568;29;20044;-96
2023/09/20 13:27:50;;;;;;;0.10;0.10;;;;;;;28.03;49.16;99826.97;4925613;29;20065;-96
2023/09/20 13:30:17;;;;;;;0.20;0.20;;;;;;;27.76;48.90;99825.69;4913164;29;20039;-95
2023/09/20 13:32:46;;;;;;;0.17;0.17;;;;;;;27.73;50.42;99819.06;4897628;29;20048;-95
2023/09/20 13:35:12;;;;;;;0.43;0.43;;;;;;;27.78;51.07;99806.69;4895242;29;20043;-96